Time;durP1;ratioP1;P1;durP2;ratioP2;P2;SDS_P1;SDS_P2;PMS_P1;PMS_P2;Temp;Humidity;BMP_temperature;BMP_pressure;BME280_temperature;BME280_humidity;BME280_pressure;Samples;Min_cycle;Max_cycle;Signal;HPM_P1;HPM_P2
2020/12/25 00:02:17;;;;;;;4.50;4.00;;;;;;;2.37;100.00;98679.86;1737021;82;21150;-79
2020/12/25 00:04:45;;;;;;;3.08;2.77;;;;;;;2.36;100.00;98698.94;1737064;82;21251;-76
2020/12/25 00:07:13;;;;;;;3.72;3.42;;;;;;;2.38;100.00;98690.77;1735931;82;21364;-74
2020/12/25 00:09:42;;;;;;;4.20;3.80;;;;;;;2.35;100.00;98680.06;1707681;82;21053;-76
2020/12/25 00:12:10;;;;;;;3.05;2.85;;;;;;;2.34;100.00;98674.48;1707463;84;21231;-75
2020/12/25 00:14:37;;;;;;;3.17;2.90;;;;;;;2.36;100.00;98660.98;1707563;84;21607;-76
2020/12/25 00:17:05;;;;;;;3.60;3.27;;;;;;;2.38;100.00;98663.72;1739606;81;21670;-74
2020/12/25 00:19:33;;;;;;;2.77;2.58;;;;;;;2.43;100.00;98661.22;1728445;81;21137;-76
2020/12/25 00:22:01;;;;;;;3.72;3.02;;;;;;;2.47;100.00;98631.88;1707513;84;21148;-75
2020/12/25 00:24:29;;;;;;;3.05;2.75;;;;;;;2.45;100.00;98636.58;1727412;83;21081;-74
2020/12/25 00:26:56;;;;;;;2.70;2.50;;;;;;;2.47;100.00;98634.52;1694931;83;21192;-77
2020/12/25 00:29:24;;;;;;;3.22;2.75;;;;;;;2.53;100.00;98626.19;1708075;82;21827;-75
2020/12/25 00:31:51;;;;;;;3.75;2.62;;;;;;;2.58;100.00;98633.78;1710584;82;21156;-74
2020/12/25 00:34:21;;;;;;;1.87;1.77;;;;;;;2.58;100.00;98636.43;1725404;82;20995;-75
2020/12/25 00:36:48;;;;;;;3.08;2.77;;;;;;;2.56;100.00;98661.05;1718530;81;21125;-76
2020/12/25 00:39:17;;;;;;;3.80;3.10;;;;;;;2.57;100.00;98668.49;1707733;83;21172;-74
2020/12/25 00:41:50;;;;;;;3.33;3.02;;;;;;;2.58;100.00;98666.14;1752845;81;21379;-76
2020/12/25 00:44:18;;;;;;;3.30;3.00;;;;;;;2.56;100.00;98669.00;1757099;81;21619;-74
2020/12/25 00:46:47;;;;;;;2.92;2.33;;;;;;;2.53;100.00;98668.14;1724280;82;21614;-74
2020/12/25 00:49:16;;;;;;;2.92;2.62;;;;;;;2.53;100.00;98653.54;1707520;82;21188;-74
2020/12/25 00:51:47;;;;;;;3.30;2.92;;;;;;;2.55;100.00;98663.40;1711195;82;21778;-76
2020/12/25 00:54:13;;;;;;;3.25;2.95;;;;;;;2.56;100.00;98669.52;1725545;82;21195;-75
2020/12/25 00:56:46;;;;;;;3.85;3.00;;;;;;;2.57;100.00;98667.98;1748282;81;21899;-74
2020/12/25 00:59:16;;;;;;;3.10;2.80;;;;;;;2.60;100.00;98654.25;1741610;81;21164;-76
2020/12/25 01:01:44;;;;;;;5.58;3.05;;;;;;;2.66;100.00;98652.55;1746012;81;21204;-73
2020/12/25 01:04:13;;;;;;;4.60;3.02;;;;;;;2.70;100.00;98631.16;1729851;81;21219;-75
2020/12/25 01:06:42;;;;;;;3.20;2.90;;;;;;;2.73;100.00;98633.38;1725621;81;21454;-75
2020/12/25 01:09:10;;;;;;;3.20;2.90;;;;;;;2.77;100.00;98627.91;1733332;82;21058;-77
2020/12/25 01:11:40;;;;;;;2.92;2.70;;;;;;;2.82;100.00;98627.23;1740113;81;21609;-77
2020/12/25 01:14:08;;;;;;;2.90;2.70;;;;;;;2.85;100.00;98620.94;1734411;82;21183;-70
2020/12/25 01:16:36;;;;;;;2.67;2.47;;;;;;;2.88;100.00;98619.15;1734854;82;21580;-73
2020/12/25 01:19:03;;;;;;;2.37;2.17;;;;;;;2.93;100.00;98625.92;1734798;82;21390;-70
2020/12/25 01:21:32;;;;;;;7.33;4.95;;;;;;;2.98;100.00;98610.12;1716898;82;21224;-72
2020/12/25 01:23:59;;;;;;;3.70;3.33;;;;;;;3.00;100.00;98615.20;1711127;83;21144;-75
2020/12/25 01:26:28;;;;;;;5.20;4.08;;;;;;;3.05;100.00;98599.41;1734654;82;21607;-75
2020/12/25 01:29:03;;;;;;;3.67;3.27;;;;;;;3.02;100.00;98599.33;1733877;81;21200;-75
2020/12/25 01:31:31;;;;;;;8.55;6.62;;;;;;;3.02;100.00;98593.23;1724476;81;22134;-74
2020/12/25 01:33:59;;;;;;;6.35;4.42;;;;;;;3.01;100.00;98593.75;1712926;83;21679;-74
2020/12/25 01:36:27;;;;;;;4.97;4.03;;;;;;;2.99;100.00;98593.66;1734556;82;21126;-74
2020/12/25 01:38:54;;;;;;;5.92;4.83;;;;;;;2.98;100.00;98596.84;1734488;82;21173;-74
2020/12/25 01:41:22;;;;;;;6.42;4.60;;;;;;;3.03;100.00;98587.67;1712017;81;21177;-73
2020/12/25 01:43:49;;;;;;;5.22;4.42;;;;;;;3.04;100.00;98577.86;1705562;84;21277;-74
2020/12/25 01:46:17;;;;;;;4.92;4.25;;;;;;;3.03;100.00;98592.17;1749557;81;21173;-73
2020/12/25 01:48:44;;;;;;;4.42;3.72;;;;;;;3.06;100.00;98588.56;1762809;81;21136;-72
2020/12/25 01:51:14;;;;;;;3.98;3.52;;;;;;;3.06;100.00;98581.92;1754235;81;21152;-71
2020/12/25 01:53:42;;;;;;;2.87;2.67;;;;;;;3.08;100.00;98596.28;1736828;82;21158;-70
2020/12/25 01:56:10;;;;;;;3.65;3.12;;;;;;;3.14;100.00;98601.20;1736780;82;21471;-72
2020/12/25 01:58:39;;;;;;;3.33;3.05;;;;;;;3.16;100.00;98599.14;1736856;82;21599;-69
2020/12/25 02:01:07;;;;;;;3.10;2.75;;;;;;;3.17;100.00;98594.91;1739512;80;21153;-70
2020/12/25 02:03:36;;;;;;;3.15;2.62;;;;;;;3.24;100.00;98602.27;1741375;82;21629;-74
2020/12/25 02:06:03;;;;;;;2.90;2.70;;;;;;;3.29;100.00;98590.95;1773496;80;21128;-69
2020/12/25 02:08:31;;;;;;;2.55;2.10;;;;;;;3.31;100.00;98585.68;1741205;82;22181;-72
2020/12/25 02:10:59;;;;;;;2.05;1.95;;;;;;;3.41;100.00;98590.42;1736666;82;21183;-71
2020/12/25 02:13:29;;;;;;;1.95;1.75;;;;;;;3.51;100.00;98582.69;1737159;80;21175;-74
2020/12/25 02:15:57;;;;;;;2.22;2.02;;;;;;;3.57;100.00;98583.61;1710032;83;21140;-72
2020/12/25 02:18:36;;;;;;;2.27;2.08;;;;;;;3.56;100.00;98578.81;1710075;83;21563;-73
2020/12/25 02:21:04;;;;;;;2.72;2.52;;;;;;;3.60;100.00;98580.51;1745066;81;21210;-73
2020/12/25 02:23:32;;;;;;;3.20;2.72;;;;;;;3.66;100.00;98575.57;1718078;80;21223;-73
2020/12/25 02:25:59;;;;;;;3.22;2.37;;;;;;;3.70;100.00;98577.53;1713929;81;21148;-72
2020/12/25 02:28:27;;;;;;;3.75;2.85;;;;;;;3.74;100.00;98573.91;1731333;82;21161;-70
2020/12/25 02:30:55;;;;;;;5.85;2.92;;;;;;;3.79;100.00;98572.69;1770022;80;21196;-70
2020/12/25 02:33:25;;;;;;;4.37;3.77;;;;;;;3.81;100.00;98568.74;1773550;80;22284;-70
2020/12/25 02:35:54;;;;;;;3.55;3.02;;;;;;;3.84;100.00;98568.78;1758161;80;21183;-70
2020/12/25 02:38:22;;;;;;;3.42;2.90;;;;;;;3.85;100.00;98567.75;1772512;80;22402;-69
2020/12/25 02:40:50;;;;;;;4.22;3.65;;;;;;;3.86;100.00;98567.52;1773437;80;21156;-70
2020/12/25 02:43:17;;;;;;;4.47;3.42;;;;;;;3.91;100.00;98562.83;1773272;80;21124;-71
2020/12/25 02:45:45;;;;;;;3.20;2.87;;;;;;;3.97;100.00;98569.88;1753682;80;21224;-71
2020/12/25 02:48:14;;;;;;;6.65;4.70;;;;;;;3.99;100.00;98566.45;1739629;82;21188;-70
2020/12/25 02:50:41;;;;;;;4.20;3.80;;;;;;;4.01;100.00;98562.23;1733249;82;21623;-72
2020/12/25 02:53:10;;;;;;;6.85;4.53;;;;;;;4.06;100.00;98572.45;1710042;83;21007;-70
2020/12/25 02:55:37;;;;;;;6.08;4.30;;;;;;;4.03;100.00;98563.59;1715567;82;21674;-70
2020/12/25 02:58:05;;;;;;;6.12;4.05;;;;;;;4.05;100.00;98571.36;1739611;82;21592;-70
2020/12/25 03:00:33;;;;;;;8.35;5.87;;;;;;;4.10;100.00;98574.93;1739085;82;21192;-70
2020/12/25 03:03:22;;;;;;;6.53;5.37;;;;;;;4.16;100.00;98560.69;1751032;80;21133;-71
2020/12/25 03:05:50;;;;;;;6.62;5.45;;;;;;;4.18;100.00;98563.09;1715795;83;21182;-70
2020/12/25 03:08:17;;;;;;;7.08;6.37;;;;;;;4.19;100.00;98565.53;1740688;82;21641;-71
2020/12/25 03:10:45;;;;;;;7.72;6.33;;;;;;;4.29;100.00;98575.56;1745401;82;21253;-70
2020/12/25 03:13:13;;;;;;;9.70;7.90;;;;;;;4.29;100.00;98575.56;1743439;82;21159;-70
2020/12/25 03:15:41;;;;;;;9.43;8.28;;;;;;;4.32;100.00;98571.09;1712610;83;21697;-73
2020/12/25 03:18:08;;;;;;;10.03;7.78;;;;;;;4.38;100.00;98567.48;1706184;83;21595;-72
2020/12/25 03:20:37;;;;;;;11.95;8.90;;;;;;;4.42;100.00;98555.84;1732087;82;21174;-70
2020/12/25 03:23:05;;;;;;;12.90;9.55;;;;;;;4.43;100.00;98565.45;1730170;82;21628;-70
2020/12/25 03:25:32;;;;;;;14.20;10.10;;;;;;;4.46;100.00;98571.64;1720570;82;21217;-70
2020/12/25 03:28:00;;;;;;;13.38;9.33;;;;;;;4.43;100.00;98570.77;1735328;82;21117;-72
2020/12/25 03:30:27;;;;;;;15.32;9.28;;;;;;;4.45;100.00;98576.67;1735087;82;21577;-70
2020/12/25 03:32:55;;;;;;;14.00;9.68;;;;;;;4.46;100.00;98581.74;1734254;82;22230;-71
2020/12/25 03:35:24;;;;;;;15.75;12.28;;;;;;;4.50;100.00;98583.43;1735241;82;21218;-69
2020/12/25 03:37:51;;;;;;;9.30;7.30;;;;;;;4.52;100.00;98565.34;1735071;82;21642;-71
2020/12/25 03:40:19;;;;;;;16.95;11.48;;;;;;;4.52;100.00;98571.48;1729883;82;21705;-70
2020/12/25 03:42:48;;;;;;;12.33;9.33;;;;;;;4.56;100.00;98581.94;1714166;83;21200;-69
2020/12/25 03:45:17;;;;;;;12.40;9.18;;;;;;;4.64;100.00;98583.42;1734307;82;21597;-69
2020/12/25 03:47:44;;;;;;;14.93;11.85;;;;;;;4.66;100.00;98580.80;1735091;82;21589;-71
2020/12/25 03:50:12;;;;;;;12.35;8.73;;;;;;;4.70;100.00;98592.58;1715305;82;21171;-70
2020/12/25 03:52:39;;;;;;;15.58;12.13;;;;;;;4.72;100.00;98594.50;1715890;82;21590;-70
2020/12/25 03:55:07;;;;;;;16.55;11.00;;;;;;;4.70;100.00;98585.14;1716185;82;21128;-70
2020/12/25 03:57:35;;;;;;;16.12;11.10;;;;;;;4.71;100.00;98588.06;1714175;83;21203;-70
2020/12/25 04:00:04;;;;;;;14.30;9.48;;;;;;;4.74;100.00;98591.08;1714154;83;21437;-69
2020/12/25 04:02:33;;;;;;;17.40;10.98;;;;;;;4.74;100.00;98581.76;1713868;83;21199;-70
2020/12/25 04:05:01;;;;;;;17.57;11.08;;;;;;;4.76;100.00;98586.31;1703498;82;21155;-70
2020/12/25 04:07:28;;;;;;;14.95;10.25;;;;;;;4.77;100.00;98572.47;1685357;85;22249;-70
2020/12/25 04:09:56;;;;;;;18.07;12.28;;;;;;;4.80;100.00;98577.30;1711241;82;21179;-68
2020/12/25 04:12:24;;;;;;;18.20;12.73;;;;;;;4.82;100.00;98581.88;1706956;84;21614;-73
2020/12/25 04:14:51;;;;;;;20.88;12.63;;;;;;;4.83;100.00;98571.00;1714188;82;21156;-69
2020/12/25 04:17:19;;;;;;;19.87;11.90;;;;;;;4.90;100.00;98576.16;1714063;83;21123;-70
2020/12/25 04:19:46;;;;;;;22.95;12.93;;;;;;;4.95;100.00;98567.44;1714213;83;21080;-70
2020/12/25 04:22:14;;;;;;;23.95;12.10;;;;;;;4.98;100.00;98558.46;1714601;83;21202;-68
2020/12/25 04:24:43;;;;;;;22.20;13.88;;;;;;;4.99;100.00;98561.94;1714365;82;21336;-70
2020/12/25 04:27:11;;;;;;;20.97;12.85;;;;;;;4.99;100.00;98578.70;1713931;83;21191;-70
2020/12/25 04:29:38;;;;;;;12.68;9.40;;;;;;;5.03;100.00;98583.05;1713071;83;21140;-70
2020/12/25 04:32:06;;;;;;;23.05;13.38;;;;;;;5.09;100.00;98586.06;1713245;82;21131;-70
2020/12/25 04:34:34;;;;;;;19.07;13.08;;;;;;;5.09;100.00;98594.87;1712906;83;21160;-68
2020/12/25 04:37:01;;;;;;;22.67;13.58;;;;;;;5.11;100.00;98591.97;1722240;82;21239;-69
2020/12/25 04:39:29;;;;;;;24.40;14.85;;;;;;;5.09;100.00;98588.73;1732789;82;21183;-68
2020/12/25 04:41:57;;;;;;;20.82;13.85;;;;;;;5.08;100.00;98591.13;1742970;82;21166;-72
2020/12/25 04:44:24;;;;;;;17.35;11.93;;;;;;;5.04;100.00;98585.45;1731255;82;21609;-69
2020/12/25 04:46:52;;;;;;;24.57;15.78;;;;;;;5.05;100.00;98584.94;1713775;83;21578;-69
2020/12/25 04:49:19;;;;;;;25.02;13.58;;;;;;;5.08;100.00;98589.80;1713967;83;21631;-69
2020/12/25 04:51:48;;;;;;;23.60;15.85;;;;;;;5.14;100.00;98578.16;1713917;83;21170;-69
2020/12/25 04:54:16;;;;;;;26.62;17.45;;;;;;;5.20;100.00;98586.00;1721220;82;21041;-69
2020/12/25 04:56:44;;;;;;;27.02;18.82;;;;;;;5.19;100.00;98587.56;1726582;82;21180;-68
2020/12/25 04:59:12;;;;;;;24.37;15.55;;;;;;;5.22;100.00;98576.44;1714519;83;21111;-69
2020/12/25 05:01:40;;;;;;;28.67;15.72;;;;;;;5.28;100.00;98582.11;1714555;83;21274;-69
2020/12/25 05:04:19;;;;;;;27.05;15.25;;;;;;;5.31;100.00;98589.64;1716823;82;21030;-72
2020/12/25 05:06:49;;;;;;;17.98;12.03;;;;;;;5.35;100.00;98593.95;1697307;84;21204;-71
2020/12/25 05:09:24;;;;;;;27.45;16.37;;;;;;;5.27;100.00;98603.95;1714453;83;21195;-69
2020/12/25 05:11:54;;;;;;;25.35;16.45;;;;;;;5.25;100.00;98609.26;1715548;82;21621;-69
2020/12/25 05:14:30;;;;;;;28.87;16.95;;;;;;;5.23;100.00;98606.83;1722015;82;21453;-68
2020/12/25 05:16:58;;;;;;;28.25;18.12;;;;;;;5.27;100.00;98599.95;1714635;83;21148;-70
2020/12/25 05:19:31;;;;;;;28.35;18.45;;;;;;;5.32;100.00;98597.12;1714478;83;21203;-70
2020/12/25 05:22:01;;;;;;;29.87;19.80;;;;;;;5.37;100.00;98592.64;1714885;82;21179;-69
2020/12/25 05:24:38;;;;;;;28.20;16.15;;;;;;;5.33;100.00;98612.84;1720552;82;21190;-71
2020/12/25 05:27:12;;;;;;;32.15;19.73;;;;;;;5.33;100.00;98618.70;1725575;82;21606;-71
2020/12/25 05:29:40;;;;;;;30.77;18.20;;;;;;;5.30;100.00;98628.00;1730492;82;21156;-69
2020/12/25 05:32:09;;;;;;;30.52;20.45;;;;;;;5.33;100.00;98620.03;1725827;82;21120;-68
2020/12/25 05:34:37;;;;;;;35.25;19.73;;;;;;;5.35;100.00;98620.09;1694166;84;21142;-68
2020/12/25 05:37:07;;;;;;;31.73;20.12;;;;;;;5.36;100.00;98619.56;1673728;85;21118;-69
2020/12/25 05:39:38;;;;;;;38.08;24.25;;;;;;;5.35;100.00;98629.94;1701605;84;21499;-68
2020/12/25 05:42:07;;;;;;;28.52;17.17;;;;;;;5.33;100.00;98623.51;1675870;85;21257;-70
2020/12/25 05:44:46;;;;;;;34.67;19.82;;;;;;;5.37;100.00;98626.52;1690050;84;21189;-70
2020/12/25 05:47:15;;;;;;;26.65;17.12;;;;;;;5.29;100.00;98626.38;1662125;86;21759;-69
2020/12/25 05:49:43;;;;;;;39.05;21.00;;;;;;;5.21;100.00;98645.45;1662209;86;21148;-67
2020/12/25 05:52:15;;;;;;;28.40;18.30;;;;;;;5.21;100.00;98653.44;1662173;86;22130;-68
2020/12/25 05:54:43;;;;;;;45.88;26.10;;;;;;;5.21;100.00;98653.44;1684995;84;22065;-67
2020/12/25 05:57:12;;;;;;;37.50;22.93;;;;;;;5.20;100.00;98655.81;1670311;84;21161;-69
2020/12/25 05:59:40;;;;;;;43.78;25.30;;;;;;;5.18;100.00;98656.59;1693241;84;21145;-68
2020/12/25 06:02:08;;;;;;;36.35;21.97;;;;;;;5.15;100.00;98661.05;1670386;84;21180;-68
2020/12/25 06:04:35;;;;;;;35.78;22.75;;;;;;;5.21;100.00;98660.11;1678077;84;21689;-79
2020/12/25 06:07:04;;;;;;;35.17;24.30;;;;;;;5.26;100.00;98670.34;1655198;86;21168;-69
2020/12/25 06:09:34;;;;;;;38.45;23.38;;;;;;;5.36;100.00;98672.89;1626223;85;21175;-69
2020/12/25 06:12:03;;;;;;;38.23;25.30;;;;;;;5.41;100.00;98668.97;1672144;85;21153;-71
2020/12/25 06:14:30;;;;;;;37.20;24.00;;;;;;;5.42;100.00;98675.37;1671769;85;21061;-69
2020/12/25 06:17:06;;;;;;;26.10;15.48;;;;;;;5.44;100.00;98678.62;1673109;85;21437;-68
2020/12/25 06:20:01;;;;;;;34.33;21.73;;;;;;;5.48;100.00;98674.95;1654233;86;21054;-68
2020/12/25 06:22:36;;;;;;;39.03;20.43;;;;;;;5.50;100.00;98676.86;1620369;88;21189;-70
2020/12/25 06:25:09;;;;;;;38.38;21.27;;;;;;;5.53;100.00;98677.69;1647863;87;21189;-67
2020/12/25 06:27:37;;;;;;;36.13;21.95;;;;;;;5.55;100.00;98686.27;1647954;87;21186;-65
2020/12/25 06:30:05;;;;;;;39.80;24.23;;;;;;;5.55;100.00;98688.94;1626277;85;21424;-70
2020/12/25 06:32:33;;;;;;;36.42;24.02;;;;;;;5.54;100.00;98681.98;1673843;84;21208;-67
2020/12/25 06:35:01;;;;;;;34.05;20.82;;;;;;;5.55;100.00;98680.42;1672978;84;21591;-68
2020/12/25 06:37:30;;;;;;;38.10;24.20;;;;;;;5.56;100.00;98676.67;1668341;85;21198;-68
2020/12/25 06:40:06;;;;;;;28.38;18.12;;;;;;;5.53;100.00;98685.70;1673744;85;21365;-67
2020/12/25 06:42:36;;;;;;;42.08;24.52;;;;;;;5.52;100.00;98690.22;1647774;87;21382;-67
2020/12/25 06:45:06;;;;;;;41.33;25.43;;;;;;;5.52;100.00;98689.41;1647856;87;21613;-68
2020/12/25 06:47:36;;;;;;;41.28;26.15;;;;;;;5.51;100.00;98693.95;1647750;87;21197;-70
2020/12/25 06:50:10;;;;;;;44.93;25.62;;;;;;;5.52;100.00;98702.73;1647771;87;21185;-70
2020/12/25 06:53:00;;;;;;;45.33;26.27;;;;;;;5.56;100.00;98698.02;1662850;85;21266;-67
2020/12/25 06:55:42;;;;;;;44.65;25.70;;;;;;;5.65;100.00;98704.59;1673782;85;21434;-68
2020/12/25 06:58:11;;;;;;;40.67;23.35;;;;;;;5.74;100.00;98713.52;1673624;84;21649;-80
2020/12/25 07:00:42;;;;;;;38.98;23.40;;;;;;;5.77;100.00;98716.50;1672472;85;21148;-69
2020/12/25 07:03:13;;;;;;;39.70;22.48;;;;;;;5.76;100.00;98721.55;1672955;85;21128;-69
2020/12/25 07:05:47;;;;;;;38.78;25.60;;;;;;;5.77;100.00;98721.02;1664989;83;20987;-68
2020/12/25 07:08:31;;;;;;;44.80;26.55;;;;;;;5.80;100.00;98728.04;1655796;85;21247;-67
2020/12/25 07:11:07;;;;;;;30.85;19.85;;;;;;;5.86;100.00;98720.90;1655571;86;21168;-67
2020/12/25 07:13:38;;;;;;;44.98;27.13;;;;;;;5.89;100.00;98722.61;1668400;86;21052;-69
2020/12/25 07:16:07;;;;;;;40.98;23.57;;;;;;;5.87;100.00;98731.89;1655727;86;21620;-67
2020/12/25 07:18:35;;;;;;;40.25;23.12;;;;;;;5.86;100.00;98736.91;1644844;86;21202;-67
2020/12/25 07:21:07;;;;;;;29.87;20.85;;;;;;;5.87;100.00;98735.89;1655698;86;21600;-68
2020/12/25 07:23:44;;;;;;;53.28;28.65;;;;;;;5.87;100.00;98737.23;1642747;86;21220;-66
2020/12/25 07:26:13;;;;;;;45.43;27.50;;;;;;;5.87;100.00;98731.89;1642006;87;21147;-69
2020/12/25 07:28:40;;;;;;;47.45;31.45;;;;;;;5.91;100.00;98739.69;1672318;85;21140;-66
2020/12/25 07:31:08;;;;;;;55.38;30.52;;;;;;;5.93;100.00;98745.61;1671285;85;21144;-68
2020/12/25 07:33:36;;;;;;;50.35;28.85;;;;;;;5.95;100.00;98747.48;1671783;85;21628;-68
2020/12/25 07:36:10;;;;;;;41.40;24.18;;;;;;;5.96;100.00;98749.11;1670491;85;21256;-66
2020/12/25 07:38:38;;;;;;;50.48;28.32;;;;;;;5.95;100.00;98754.16;1670723;85;21200;-64
2020/12/25 07:41:06;;;;;;;48.98;29.67;;;;;;;5.94;100.00;98760.05;1657339;85;21092;-67
2020/12/25 07:43:34;;;;;;;44.55;29.27;;;;;;;6.00;100.00;98764.91;1657620;85;21171;-65
2020/12/25 07:46:02;;;;;;;56.48;30.43;;;;;;;6.03;100.00;98759.92;1673503;85;21393;-68
2020/12/25 07:48:29;;;;;;;50.12;31.65;;;;;;;6.08;100.00;98764.01;1673271;85;21180;-69
2020/12/25 07:50:57;;;;;;;57.03;31.50;;;;;;;6.13;100.00;98776.63;1673181;85;21173;-71
2020/12/25 07:53:25;;;;;;;53.45;34.65;;;;;;;6.13;100.00;98785.44;1669815;85;21139;-67
2020/12/25 07:55:53;;;;;;;49.13;30.55;;;;;;;6.13;100.00;98785.44;1661004;86;21244;-67
2020/12/25 07:58:22;;;;;;;46.13;29.75;;;;;;;6.14;100.00;98783.55;1684256;85;21229;-69
2020/12/25 08:00:49;;;;;;;47.85;28.15;;;;;;;6.16;100.00;98786.80;1681231;85;21199;-72
2020/12/25 08:03:17;;;;;;;60.38;31.48;;;;;;;6.18;100.00;98783.38;1672979;85;21054;-67
2020/12/25 08:05:48;;;;;;;47.73;26.90;;;;;;;6.22;100.00;98790.37;1684247;84;21029;-68
2020/12/25 08:08:15;;;;;;;42.67;25.35;;;;;;;6.24;100.00;98792.25;1675544;85;21598;-67
2020/12/25 08:10:43;;;;;;;50.85;27.58;;;;;;;6.23;100.00;98798.67;1677743;84;22151;-66
2020/12/25 08:13:12;;;;;;;50.43;29.80;;;;;;;6.21;100.00;98793.56;1672888;85;21199;-67
2020/12/25 08:15:40;;;;;;;38.33;23.62;;;;;;;6.23;100.00;98791.98;1677422;84;21576;-66
2020/12/25 08:18:07;;;;;;;52.15;29.40;;;;;;;6.26;100.00;98782.15;1659346;85;22299;-66
2020/12/25 08:20:35;;;;;;;39.35;26.90;;;;;;;6.29;100.00;98794.48;1682908;85;21120;-67
2020/12/25 08:23:04;;;;;;;48.98;27.87;;;;;;;6.32;100.00;98790.53;1695171;84;21571;-69
2020/12/25 08:25:32;;;;;;;41.13;23.45;;;;;;;6.31;100.00;98795.58;1695168;84;21643;-67
2020/12/25 08:28:00;;;;;;;41.10;23.67;;;;;;;6.30;100.00;98792.62;1695108;84;21116;-67
2020/12/25 08:30:28;;;;;;;40.25;25.23;;;;;;;6.29;100.00;98785.13;1695374;84;21141;-66
2020/12/25 08:32:59;;;;;;;37.98;24.77;;;;;;;6.29;100.00;98785.66;1693234;84;22245;-68
2020/12/25 08:35:29;;;;;;;34.75;23.18;;;;;;;6.31;100.00;98795.58;1689186;84;22267;-67
2020/12/25 08:38:02;;;;;;;43.63;24.57;;;;;;;6.32;100.00;98790.53;1695984;84;21238;-67
2020/12/25 08:40:33;;;;;;;42.27;27.58;;;;;;;6.32;100.00;98798.54;1706206;84;21156;-68
2020/12/25 08:43:10;;;;;;;38.67;24.80;;;;;;;6.31;99.71;98802.25;1676240;85;21153;-68
2020/12/25 08:45:41;;;;;;;44.38;25.48;;;;;;;6.30;99.53;98805.45;1706130;84;21237;-68
2020/12/25 08:48:12;;;;;;;43.50;26.65;;;;;;;6.33;99.51;98803.61;1702506;84;21331;-68
2020/12/25 08:50:40;;;;;;;44.08;28.17;;;;;;;6.36;99.49;98805.81;1694346;84;21623;-68
2020/12/25 08:53:16;;;;;;;38.13;24.95;;;;;;;6.41;99.37;98803.75;1706235;84;21644;-68
2020/12/25 08:55:46;;;;;;;41.35;25.30;;;;;;;6.42;99.22;98801.36;1673896;85;21678;-66
2020/12/25 08:58:20;;;;;;;40.20;27.52;;;;;;;6.42;99.04;98793.35;1692385;84;21212;-66
2020/12/25 09:00:59;;;;;;;39.73;22.73;;;;;;;6.41;98.86;98790.39;1692275;84;21631;-66
2020/12/25 09:03:41;;;;;;;31.80;19.87;;;;;;;6.41;98.67;98792.54;1693798;84;21005;-67
2020/12/25 09:06:10;;;;;;;39.53;23.55;;;;;;;6.42;98.54;98802.70;1697317;84;21155;-67
2020/12/25 09:08:38;;;;;;;39.42;20.92;;;;;;;6.42;98.41;98807.52;1687395;85;21154;-66
2020/12/25 09:11:17;;;;;;;33.33;22.70;;;;;;;6.43;98.42;98801.62;1687594;85;21158;-68
2020/12/25 09:13:45;;;;;;;24.37;19.10;;;;;;;6.42;98.12;98801.36;1689150;85;21412;-68
2020/12/25 09:16:14;;;;;;;38.75;28.17;;;;;;;6.37;97.97;98804.77;1679490;85;21221;-67
2020/12/25 09:18:42;;;;;;;34.05;23.12;;;;;;;6.31;97.84;98800.91;1687335;85;21123;-67
2020/12/25 09:21:12;;;;;;;32.53;21.12;;;;;;;6.29;97.92;98810.50;1687353;85;21146;-65
2020/12/25 09:23:40;;;;;;;35.08;22.10;;;;;;;6.27;98.01;98814.48;1686451;84;21331;-69
2020/12/25 09:26:10;;;;;;;28.85;19.90;;;;;;;6.26;97.74;98816.34;1687360;85;21540;-69
2020/12/25 09:28:38;;;;;;;29.72;18.75;;;;;;;6.23;97.37;98814.16;1687402;84;21611;-70
2020/12/25 09:31:09;;;;;;;30.40;18.65;;;;;;;6.23;97.35;98816.02;1687438;85;21194;-67
2020/12/25 09:33:37;;;;;;;20.43;14.87;;;;;;;6.23;97.43;98808.82;1680804;84;21209;-68
2020/12/25 09:36:06;;;;;;;27.07;15.38;;;;;;;6.23;97.10;98804.00;1675088;85;21203;-66
2020/12/25 09:38:36;;;;;;;19.65;15.45;;;;;;;6.21;96.78;98800.76;1677529;85;21213;-67
2020/12/25 09:41:03;;;;;;;22.62;14.68;;;;;;;6.22;96.80;98799.71;1679490;85;21200;-66
2020/12/25 09:43:34;;;;;;;18.37;14.38;;;;;;;6.25;96.49;98797.36;1673800;85;21645;-66
2020/12/25 09:46:03;;;;;;;16.12;13.58;;;;;;;6.26;96.17;98807.52;1679995;85;21179;-65
2020/12/25 09:48:30;;;;;;;15.58;11.25;;;;;;;6.28;96.08;98815.58;1687870;85;21592;-66
2020/12/25 09:50:58;;;;;;;18.42;14.75;;;;;;;6.33;95.88;98817.52;1687558;85;21503;-66
2020/12/25 09:53:26;;;;;;;14.85;12.80;;;;;;;6.33;95.88;98813.52;1673316;85;21751;-66
2020/12/25 09:55:54;;;;;;;18.82;13.10;;;;;;;6.40;95.76;98807.47;1674635;85;21167;-67
2020/12/25 09:58:22;;;;;;;14.93;11.20;;;;;;;6.44;95.58;98800.58;1677406;85;21567;-66
2020/12/25 10:00:51;;;;;;;18.10;13.53;;;;;;;6.48;95.20;98805.18;1674928;85;21169;-65
2020/12/25 10:03:18;;;;;;;30.88;15.38;;;;;;;6.49;94.83;98795.31;1686068;85;21436;-67
2020/12/25 10:05:46;;;;;;;20.90;14.03;;;;;;;6.49;94.37;98794.78;1685014;82;21127;-65
2020/12/25 10:08:13;;;;;;;20.45;15.68;;;;;;;6.49;94.32;98791.30;1704961;84;21151;-65
2020/12/25 10:10:42;;;;;;;24.07;15.32;;;;;;;6.52;94.28;98788.16;1699834;84;21208;-68
2020/12/25 10:13:10;;;;;;;21.05;15.85;;;;;;;6.59;94.43;98778.09;1698665;84;21159;-66
2020/12/25 10:15:38;;;;;;;24.23;16.90;;;;;;;6.69;94.36;98776.09;1693186;83;21235;-66
2020/12/25 10:18:06;;;;;;;25.35;17.82;;;;;;;6.74;94.13;98782.84;1703437;84;21648;-65
2020/12/25 10:20:33;;;;;;;37.15;20.60;;;;;;;6.78;93.91;98778.09;1690372;84;21214;-67
2020/12/25 10:23:01;;;;;;;37.33;21.40;;;;;;;6.81;93.55;98782.92;1682152;84;21554;-67
2020/12/25 10:25:29;;;;;;;36.63;21.42;;;;;;;6.84;93.45;98793.14;1680895;85;21193;-67
2020/12/25 10:27:58;;;;;;;32.98;19.95;;;;;;;6.84;93.14;98785.12;1680775;85;21530;-68
2020/12/25 10:30:26;;;;;;;38.00;21.87;;;;;;;6.88;93.13;98785.42;1680779;85;21148;-67
2020/12/25 10:32:53;;;;;;;41.70;21.05;;;;;;;6.91;92.95;98780.91;1689260;84;21436;-66
2020/12/25 10:35:21;;;;;;;32.75;21.12;;;;;;;6.92;92.43;98779.34;1690645;83;21130;-72
2020/12/25 10:37:49;;;;;;;42.25;22.65;;;;;;;6.92;92.34;98775.33;1681209;83;21179;-67
2020/12/25 10:40:19;;;;;;;41.90;23.12;;;;;;;6.93;92.32;98783.63;1708399;83;22450;-67
2020/12/25 10:42:48;;;;;;;52.03;23.75;;;;;;;6.97;92.29;98777.25;1705477;83;21213;-67
2020/12/25 10:45:16;;;;;;;43.60;22.30;;;;;;;6.98;91.91;98773.00;1690177;83;21164;-67
2020/12/25 10:47:44;;;;;;;46.13;22.85;;;;;;;7.03;91.81;98774.93;1696361;84;21799;-69
2020/12/25 10:50:11;;;;;;;42.83;21.75;;;;;;;7.07;91.50;98784.59;1692735;84;21181;-65
2020/12/25 10:52:38;;;;;;;40.10;23.02;;;;;;;7.11;91.24;98792.39;1698409;84;21539;-69
2020/12/25 10:55:07;;;;;;;35.73;20.90;;;;;;;7.13;91.01;98787.61;1697925;84;21554;-67
2020/12/25 10:57:34;;;;;;;39.85;21.40;;;;;;;7.14;90.52;98788.70;1700277;84;22340;-64
2020/12/25 11:00:02;;;;;;;39.23;19.12;;;;;;;7.16;90.40;98797.80;1702941;84;21117;-68
2020/12/25 11:02:31;;;;;;;35.83;19.30;;;;;;;7.14;89.85;98793.24;1703079;84;21592;-68
2020/12/25 11:05:19;;;;;;;27.95;18.45;;;;;;;7.16;89.44;98797.80;1668439;84;21378;-66
2020/12/25 11:07:46;;;;;;;31.90;20.48;;;;;;;7.16;89.08;98799.13;1696907;83;21665;-66
2020/12/25 11:10:34;;;;;;;32.58;17.40;;;;;;;7.15;89.06;98816.22;1692287;84;21235;-69
2020/12/25 11:13:02;;;;;;;23.92;14.65;;;;;;;7.12;88.83;98821.56;1692638;84;21177;-65
2020/12/25 11:15:29;;;;;;;23.52;15.70;;;;;;;7.11;88.86;98823.12;1692719;84;21141;-67
2020/12/25 11:17:57;;;;;;;26.80;16.97;;;;;;;7.10;89.11;98824.22;1698696;84;21381;-69
2020/12/25 11:20:27;;;;;;;25.95;17.92;;;;;;;7.12;89.24;98828.77;1700805;84;21554;-66
2020/12/25 11:22:55;;;;;;;19.25;14.80;;;;;;;7.12;89.27;98822.89;1702070;84;21571;-65
2020/12/25 11:25:22;;;;;;;27.58;16.40;;;;;;;7.14;89.09;98830.15;1700815;84;21133;-64
2020/12/25 11:27:50;;;;;;;18.80;13.68;;;;;;;7.14;89.16;98834.16;1701177;84;21167;-64
2020/12/25 11:30:17;;;;;;;25.27;17.05;;;;;;;7.15;89.31;98830.41;1658350;85;21401;-66
2020/12/25 11:32:45;;;;;;;18.25;13.60;;;;;;;7.16;89.08;98836.04;1680539;85;21632;-64
2020/12/25 11:35:12;;;;;;;15.08;12.13;;;;;;;7.13;88.44;98839.75;1681979;85;21574;-65